sensor_id;sensor_type;location;lat;lon;timestamp;temperature;humidity
68098;DHT22;54886;47.036;15.466;2023-05-27T00:01:53;17.10;66.33
68098;DHT22;54886;47.036;15.466;2023-05-27T00:04:18;17.09;65.65
68098;DHT22;54886;47.036;15.466;2023-05-27T00:06:43;17.10;65.90
68098;DHT22;54886;47.036;15.466;2023-05-27T00:09:09;16.92;66.41
68098;DHT22;54886;47.036;15.466;2023-05-27T00:11:34;16.87;66.39
68098;DHT22;54886;47.036;15.466;2023-05-27T00:14:00;16.86;66.52
68098;DHT22;54886;47.036;15.466;2023-05-27T00:16:25;16.97;66.02
68098;DHT22;54886;47.036;15.466;2023-05-27T00:18:51;16.99;66.40
68098;DHT22;54886;47.036;15.466;2023-05-27T00:21:17;16.92;67.00
68098;DHT22;54886;47.036;15.466;2023-05-27T00:23:46;16.83;67.24
68098;DHT22;54886;47.036;15.466;2023-05-27T00:26:12;16.85;66.99
68098;DHT22;54886;47.036;15.466;2023-05-27T00:28:37;16.90;67.26
68098;DHT22;54886;47.036;15.466;2023-05-27T00:31:03;16.89;67.50
68098;DHT22;54886;47.036;15.466;2023-05-27T00:33:28;16.86;66.96
68098;DHT22;54886;47.036;15.466;2023-05-27T00:35:54;16.83;67.23
68098;DHT22;54886;47.036;15.466;2023-05-27T00:38:19;16.73;67.91
68098;DHT22;54886;47.036;15.466;2023-05-27T00:40:45;16.79;66.51
68098;DHT22;54886;47.036;15.466;2023-05-27T00:43:11;16.85;66.70
68098;DHT22;54886;47.036;15.466;2023-05-27T00:45:36;16.75;67.23
68098;DHT22;54886;47.036;15.466;2023-05-27T00:48:02;16.76;66.65
68098;DHT22;54886;47.036;15.466;2023-05-27T00:50:28;16.71;67.28
68098;DHT22;54886;47.036;15.466;2023-05-27T00:52:54;16.67;67.37
68098;DHT22;54886;47.036;15.466;2023-05-27T00:55:23;16.52;67.31
68098;DHT22;54886;47.036;15.466;2023-05-27T00:57:49;16.57;67.23
68098;DHT22;54886;47.036;15.466;2023-05-27T01:00:15;16.41;67.82
68098;DHT22;54886;47.036;15.466;2023-05-27T01:02:41;16.30;68.35
68098;DHT22;54886;47.036;15.466;2023-05-27T01:05:13;16.24;68.76
68098;DHT22;54886;47.036;15.466;2023-05-27T01:10:17;16.25;68.22
68098;DHT22;54886;47.036;15.466;2023-05-27T01:12:59;16.27;67.89
68098;DHT22;54886;47.036;15.466;2023-05-27T01:15:25;16.09;69.09
68098;DHT22;54886;47.036;15.466;2023-05-27T01:17:55;16.13;68.16
68098;DHT22;54886;47.036;15.466;2023-05-27T01:20:21;16.18;68.16
68098;DHT22;54886;47.036;15.466;2023-05-27T01:22:57;16.25;68.17
68098;DHT22;54886;47.036;15.466;2023-05-27T01:25:27;16.25;67.07
68098;DHT22;54886;47.036;15.466;2023-05-27T01:27:53;16.13;68.57
68098;DHT22;54886;47.036;15.466;2023-05-27T01:30:21;15.99;68.65
68098;DHT22;54886;47.036;15.466;2023-05-27T01:35:37;15.75;69.47
68098;DHT22;54886;47.036;15.466;2023-05-27T01:38:08;15.73;69.45
68098;DHT22;54886;47.036;15.466;2023-05-27T01:40:35;15.81;69.27
68098;DHT22;54886;47.036;15.466;2023-05-27T01:43:03;15.78;69.56
68098;DHT22;54886;47.036;15.466;2023-05-27T01:45:29;15.70;68.91
68098;DHT22;54886;47.036;15.466;2023-05-27T01:47:55;15.86;68.35
68098;DHT22;54886;47.036;15.466;2023-05-27T01:50:20;15.69;69.26
68098;DHT22;54886;47.036;15.466;2023-05-27T01:52:46;15.59;69.61
68098;DHT22;54886;47.036;15.466;2023-05-27T01:55:11;15.66;68.69
68098;DHT22;54886;47.036;15.466;2023-05-27T01:57:37;15.42;70.09
68098;DHT22;54886;47.036;15.466;2023-05-27T02:00:02;15.42;69.89
68098;DHT22;54886;47.036;15.466;2023-05-27T02:02:30;15.42;69.38
68098;DHT22;54886;47.036;15.466;2023-05-27T02:04:56;15.59;68.45
68098;DHT22;54886;47.036;15.466;2023-05-27T02:07:22;15.62;68.94
68098;DHT22;54886;47.036;15.466;2023-05-27T02:09:48;15.62;69.24
68098;DHT22;54886;47.036;15.466;2023-05-27T02:12:13;15.47;69.75
68098;DHT22;54886;47.036;15.466;2023-05-27T02:14:39;15.38;69.77
68098;DHT22;54886;47.036;15.466;2023-05-27T02:17:06;15.24;70.13
68098;DHT22;54886;47.036;15.466;2023-05-27T02:19:31;15.20;70.21
68098;DHT22;54886;47.036;15.466;2023-05-27T02:21:57;15.20;69.94
68098;DHT22;54886;47.036;15.466;2023-05-27T02:24:22;15.16;70.46
68098;DHT22;54886;47.036;15.466;2023-05-27T02:26:48;15.21;69.12
68098;DHT22;54886;47.036;15.466;2023-05-27T02:29:13;15.20;69.18
68098;DHT22;54886;47.036;15.466;2023-05-27T02:31:38;15.11;70.17
68098;DHT22;54886;47.036;15.466;2023-05-27T02:34:04;15.11;69.57
68098;DHT22;54886;47.036;15.466;2023-05-27T02:36:29;15.14;69.67
68098;DHT22;54886;47.036;15.466;2023-05-27T02:38:54;15.21;68.90
68098;DHT22;54886;47.036;15.466;2023-05-27T02:41:20;15.10;70.78
68098;DHT22;54886;47.036;15.466;2023-05-27T02:43:45;15.10;69.46
68098;DHT22;54886;47.036;15.466;2023-05-27T02:46:11;14.99;70.74
68098;DHT22;54886;47.036;15.466;2023-05-27T02:48:36;14.87;71.30
68098;DHT22;54886;47.036;15.466;2023-05-27T02:51:02;14.85;70.86
68098;DHT22;54886;47.036;15.466;2023-05-27T02:53:27;14.75;70.91
68098;DHT22;54886;47.036;15.466;2023-05-27T02:55:52;14.75;70.97
68098;DHT22;54886;47.036;15.466;2023-05-27T02:58:18;14.68;71.45
68098;DHT22;54886;47.036;15.466;2023-05-27T03:00:43;14.75;70.91
68098;DHT22;54886;47.036;15.466;2023-05-27T03:03:08;14.67;70.32
68098;DHT22;54886;47.036;15.466;2023-05-27T03:05:34;14.80;70.26
68098;DHT22;54886;47.036;15.466;2023-05-27T03:08:01;14.87;69.63
68098;DHT22;54886;47.036;15.466;2023-05-27T03:10:26;14.76;70.19
68098;DHT22;54886;47.036;15.466;2023-05-27T03:12:54;14.67;71.02
68098;DHT22;54886;47.036;15.466;2023-05-27T03:15:20;14.78;68.97
68098;DHT22;54886;47.036;15.466;2023-05-27T03:17:47;14.75;70.91
68098;DHT22;54886;47.036;15.466;2023-05-27T03:20:12;14.61;70.87
68098;DHT22;54886;47.036;15.466;2023-05-27T03:22:38;14.51;71.33
68098;DHT22;54886;47.036;15.466;2023-05-27T03:25:04;14.48;71.16
68098;DHT22;54886;47.036;15.466;2023-05-27T03:27:30;14.57;69.56
68098;DHT22;54886;47.036;15.466;2023-05-27T03:29:56;14.61;69.17
68098;DHT22;54886;47.036;15.466;2023-05-27T03:32:21;14.61;70.08
68098;DHT22;54886;47.036;15.466;2023-05-27T03:34:46;14.45;71.74
68098;DHT22;54886;47.036;15.466;2023-05-27T03:37:12;14.45;71.16
68098;DHT22;54886;47.036;15.466;2023-05-27T03:39:39;14.38;71.80
68098;DHT22;54886;47.036;15.466;2023-05-27T03:42:05;14.35;71.86
68098;DHT22;54886;47.036;15.466;2023-05-27T03:44:31;14.31;71.08
68098;DHT22;54886;47.036;15.466;2023-05-27T03:46:57;14.38;72.20
68098;DHT22;54886;47.036;15.466;2023-05-27T03:49:22;14.46;71.22
68098;DHT22;54886;47.036;15.466;2023-05-27T03:51:48;14.34;72.52
68098;DHT22;54886;47.036;15.466;2023-05-27T03:54:13;14.37;72.31
68098;DHT22;54886;47.036;15.466;2023-05-27T03:56:39;14.38;72.98
68098;DHT22;54886;47.036;15.466;2023-05-27T03:59:04;14.37;72.65
68098;DHT22;54886;47.036;15.466;2023-05-27T04:01:31;14.41;72.70
68098;DHT22;54886;47.036;15.466;2023-05-27T04:03:56;14.40;72.67
68098;DHT22;54886;47.036;15.466;2023-05-27T04:06:22;14.64;71.27
68098;DHT22;54886;47.036;15.466;2023-05-27T04:08:47;14.82;70.97
68098;DHT22;54886;47.036;15.466;2023-05-27T04:11:12;14.92;70.47
68098;DHT22;54886;47.036;15.466;2023-05-27T04:13:39;15.04;69.83
68098;DHT22;54886;47.036;15.466;2023-05-27T04:16:04;15.19;69.08
68098;DHT22;54886;47.036;15.466;2023-05-27T04:18:31;15.28;68.71
68098;DHT22;54886;47.036;15.466;2023-05-27T04:20:56;15.34;69.71
68098;DHT22;54886;47.036;15.466;2023-05-27T04:23:23;15.37;70.46
68098;DHT22;54886;47.036;15.466;2023-05-27T04:25:49;15.44;68.76
68098;DHT22;54886;47.036;15.466;2023-05-27T04:28:15;15.47;68.10
68098;DHT22;54886;47.036;15.466;2023-05-27T04:30:41;15.51;68.49
68098;DHT22;54886;47.036;15.466;2023-05-27T04:33:06;15.50;68.59
68098;DHT22;54886;47.036;15.466;2023-05-27T04:35:33;15.42;69.00
68098;DHT22;54886;47.036;15.466;2023-05-27T04:37:58;15.38;69.64
68098;DHT22;54886;47.036;15.466;2023-05-27T04:40:28;15.47;69.32
68098;DHT22;54886;47.036;15.466;2023-05-27T04:42:54;15.54;69.33
68098;DHT22;54886;47.036;15.466;2023-05-27T04:45:21;15.51;70.02
68098;DHT22;54886;47.036;15.466;2023-05-27T04:47:46;15.63;70.55
68098;DHT22;54886;47.036;15.466;2023-05-27T04:50:12;15.65;69.95
68098;DHT22;54886;47.036;15.466;2023-05-27T04:52:38;15.70;69.24
68098;DHT22;54886;47.036;15.466;2023-05-27T04:55:05;15.75;70.12
68098;DHT22;54886;47.036;15.466;2023-05-27T04:57:30;15.81;69.71
68098;DHT22;54886;47.036;15.466;2023-05-27T04:59:56;15.85;68.66
68098;DHT22;54886;47.036;15.466;2023-05-27T05:02:43;15.89;69.18
68098;DHT22;54886;47.036;15.466;2023-05-27T05:05:11;15.90;68.74
68098;DHT22;54886;47.036;15.466;2023-05-27T05:07:37;15.87;68.56
68098;DHT22;54886;47.036;15.466;2023-05-27T05:10:07;15.93;68.92
68098;DHT22;54886;47.036;15.466;2023-05-27T05:12:33;15.93;67.75
68098;DHT22;54886;47.036;15.466;2023-05-27T05:14:59;15.97;68.20
68098;DHT22;54886;47.036;15.466;2023-05-27T05:17:24;16.00;68.11
68098;DHT22;54886;47.036;15.466;2023-05-27T05:19:51;16.06;67.57
68098;DHT22;54886;47.036;15.466;2023-05-27T05:22:17;16.07;67.35
68098;DHT22;54886;47.036;15.466;2023-05-27T05:24:44;16.16;69.58
68098;DHT22;54886;47.036;15.466;2023-05-27T05:27:10;16.23;67.34
68098;DHT22;54886;47.036;15.466;2023-05-27T05:29:35;16.28;68.06
68098;DHT22;54886;47.036;15.466;2023-05-27T05:32:02;16.34;69.79
68098;DHT22;54886;47.036;15.466;2023-05-27T05:34:27;16.35;69.08
68098;DHT22;54886;47.036;15.466;2023-05-27T05:36:52;16.40;68.61
68098;DHT22;54886;47.036;15.466;2023-05-27T05:39:18;16.48;69.32
68098;DHT22;54886;47.036;15.466;2023-05-27T05:41:45;16.54;69.67
68098;DHT22;54886;47.036;15.466;2023-05-27T05:44:11;16.57;68.49
68098;DHT22;54886;47.036;15.466;2023-05-27T05:46:36;16.65;67.54
68098;DHT22;54886;47.036;15.466;2023-05-27T05:49:02;16.72;68.48
68098;DHT22;54886;47.036;15.466;2023-05-27T05:51:27;16.76;67.55
68098;DHT22;54886;47.036;15.466;2023-05-27T05:53:53;16.83;68.13
68098;DHT22;54886;47.036;15.466;2023-05-27T05:56:18;16.89;67.90
68098;DHT22;54886;47.036;15.466;2023-05-27T05:58:43;16.92;68.15
68098;DHT22;54886;47.036;15.466;2023-05-27T06:01:09;16.96;67.71
68098;DHT22;54886;47.036;15.466;2023-05-27T06:03:35;17.00;67.59
68098;DHT22;54886;47.036;15.466;2023-05-27T06:06:01;17.06;69.07
68098;DHT22;54886;47.036;15.466;2023-05-27T06:08:28;17.10;68.30
68098;DHT22;54886;47.036;15.466;2023-05-27T06:10:53;17.13;66.80
68098;DHT22;54886;47.036;15.466;2023-05-27T06:13:18;17.19;66.52
68098;DHT22;54886;47.036;15.466;2023-05-27T06:15:44;17.23;66.01
68098;DHT22;54886;47.036;15.466;2023-05-27T06:18:09;17.28;65.82
68098;DHT22;54886;47.036;15.466;2023-05-27T06:20:35;17.33;65.59
68098;DHT22;54886;47.036;15.466;2023-05-27T06:23:01;17.37;65.65
68098;DHT22;54886;47.036;15.466;2023-05-27T06:25:26;17.44;65.33
68098;DHT22;54886;47.036;15.466;2023-05-27T06:27:51;17.50;65.91
68098;DHT22;54886;47.036;15.466;2023-05-27T06:30:17;17.54;65.36
68098;DHT22;54886;47.036;15.466;2023-05-27T06:32:42;17.58;65.77
68098;DHT22;54886;47.036;15.466;2023-05-27T06:35:07;17.65;64.64
68098;DHT22;54886;47.036;15.466;2023-05-27T06:37:33;17.69;64.93
68098;DHT22;54886;47.036;15.466;2023-05-27T06:39:58;17.71;65.08
68098;DHT22;54886;47.036;15.466;2023-05-27T06:42:24;17.78;64.63
68098;DHT22;54886;47.036;15.466;2023-05-27T06:44:49;17.85;65.08
68098;DHT22;54886;47.036;15.466;2023-05-27T06:47:14;17.87;65.93
68098;DHT22;54886;47.036;15.466;2023-05-27T06:49:40;17.93;64.97
68098;DHT22;54886;47.036;15.466;2023-05-27T06:52:05;17.96;64.94
68098;DHT22;54886;47.036;15.466;2023-05-27T06:54:31;18.00;64.88
68098;DHT22;54886;47.036;15.466;2023-05-27T06:56:57;18.04;62.71
68098;DHT22;54886;47.036;15.466;2023-05-27T06:59:22;18.07;62.84
68098;DHT22;54886;47.036;15.466;2023-05-27T07:01:48;18.13;63.76
68098;DHT22;54886;47.036;15.466;2023-05-27T07:04:13;18.18;63.24
68098;DHT22;54886;47.036;15.466;2023-05-27T07:06:42;18.17;63.76
68098;DHT22;54886;47.036;15.466;2023-05-27T07:09:08;18.26;60.64
68098;DHT22;54886;47.036;15.466;2023-05-27T07:11:33;18.30;61.87
68098;DHT22;54886;47.036;15.466;2023-05-27T07:13:59;18.33;58.67
68098;DHT22;54886;47.036;15.466;2023-05-27T07:16:25;18.38;59.55
68098;DHT22;54886;47.036;15.466;2023-05-27T07:18:50;18.44;57.14
68098;DHT22;54886;47.036;15.466;2023-05-27T07:21:16;18.44;59.00
68098;DHT22;54886;47.036;15.466;2023-05-27T07:23:41;18.47;59.04
68098;DHT22;54886;47.036;15.466;2023-05-27T07:26:06;18.50;58.96
68098;DHT22;54886;47.036;15.466;2023-05-27T07:28:32;18.54;58.32
68098;DHT22;54886;47.036;15.466;2023-05-27T07:30:57;18.59;58.18
68098;DHT22;54886;47.036;15.466;2023-05-27T07:33:23;18.64;58.25
68098;DHT22;54886;47.036;15.466;2023-05-27T07:35:48;18.68;55.61
68098;DHT22;54886;47.036;15.466;2023-05-27T07:38:14;18.71;57.09
68098;DHT22;54886;47.036;15.466;2023-05-27T07:40:39;18.75;56.43
68098;DHT22;54886;47.036;15.466;2023-05-27T07:43:05;18.78;55.07
68098;DHT22;54886;47.036;15.466;2023-05-27T07:45:30;18.81;55.45
68098;DHT22;54886;47.036;15.466;2023-05-27T07:47:56;18.82;56.14
68098;DHT22;54886;47.036;15.466;2023-05-27T07:50:22;18.82;54.38
68098;DHT22;54886;47.036;15.466;2023-05-27T07:52:47;18.85;55.18
68098;DHT22;54886;47.036;15.466;2023-05-27T07:55:12;18.98;55.53
68098;DHT22;54886;47.036;15.466;2023-05-27T07:57:38;19.00;55.02
68098;DHT22;54886;47.036;15.466;2023-05-27T08:00:04;19.04;55.89
68098;DHT22;54886;47.036;15.466;2023-05-27T08:02:31;19.09;54.23
68098;DHT22;54886;47.036;15.466;2023-05-27T08:04:56;19.13;55.01
68098;DHT22;54886;47.036;15.466;2023-05-27T08:07:22;19.17;55.24
68098;DHT22;54886;47.036;15.466;2023-05-27T08:09:48;19.20;53.40
68098;DHT22;54886;47.036;15.466;2023-05-27T08:12:13;19.24;51.30
68098;DHT22;54886;47.036;15.466;2023-05-27T08:14:39;19.28;51.94
68098;DHT22;54886;47.036;15.466;2023-05-27T08:17:05;19.38;51.71
68098;DHT22;54886;47.036;15.466;2023-05-27T08:19:31;19.38;51.39
68098;DHT22;54886;47.036;15.466;2023-05-27T08:21:56;19.43;53.02
68098;DHT22;54886;47.036;15.466;2023-05-27T08:24:22;19.48;52.93
68098;DHT22;54886;47.036;15.466;2023-05-27T08:26:48;19.55;53.14
68098;DHT22;54886;47.036;15.466;2023-05-27T08:29:13;19.59;53.02
68098;DHT22;54886;47.036;15.466;2023-05-27T08:31:39;19.61;52.29
68098;DHT22;54886;47.036;15.466;2023-05-27T08:34:05;19.65;50.93
68098;DHT22;54886;47.036;15.466;2023-05-27T08:36:30;19.71;51.43
68098;DHT22;54886;47.036;15.466;2023-05-27T08:38:57;19.71;50.63
68098;DHT22;54886;47.036;15.466;2023-05-27T08:41:23;19.74;50.37
68098;DHT22;54886;47.036;15.466;2023-05-27T08:43:49;19.76;47.58
68098;DHT22;54886;47.036;15.466;2023-05-27T08:46:15;19.83;47.32
68098;DHT22;54886;47.036;15.466;2023-05-27T08:48:41;19.86;50.04
68098;DHT22;54886;47.036;15.466;2023-05-27T08:51:07;19.87;48.21
68098;DHT22;54886;47.036;15.466;2023-05-27T08:53:33;19.89;46.86
68098;DHT22;54886;47.036;15.466;2023-05-27T08:55:59;19.87;47.03
68098;DHT22;54886;47.036;15.466;2023-05-27T08:58:27;19.89;47.09
68098;DHT22;54886;47.036;15.466;2023-05-27T09:00:52;19.96;47.39
68098;DHT22;54886;47.036;15.466;2023-05-27T09:03:18;19.96;45.04
68098;DHT22;54886;47.036;15.466;2023-05-27T09:05:44;20.00;44.88
68098;DHT22;54886;47.036;15.466;2023-05-27T09:08:09;20.05;46.61
68098;DHT22;54886;47.036;15.466;2023-05-27T09:10:39;20.19;43.97
68098;DHT22;54886;47.036;15.466;2023-05-27T09:13:05;20.24;44.21
68098;DHT22;54886;47.036;15.466;2023-05-27T09:15:31;20.23;43.99
68098;DHT22;54886;47.036;15.466;2023-05-27T09:17:57;20.23;45.12
68098;DHT22;54886;47.036;15.466;2023-05-27T09:20:26;20.29;43.76
68098;DHT22;54886;47.036;15.466;2023-05-27T09:23:02;20.31;43.94
68098;DHT22;54886;47.036;15.466;2023-05-27T09:25:29;20.40;42.51
68098;DHT22;54886;47.036;15.466;2023-05-27T09:27:55;20.43;44.76
68098;DHT22;54886;47.036;15.466;2023-05-27T09:30:22;20.47;44.67
68098;DHT22;54886;47.036;15.466;2023-05-27T09:32:48;20.51;43.35
68098;DHT22;54886;47.036;15.466;2023-05-27T09:35:15;20.61;43.47
68098;DHT22;54886;47.036;15.466;2023-05-27T09:37:42;20.68;43.32
68098;DHT22;54886;47.036;15.466;2023-05-27T09:40:11;20.76;45.21
68098;DHT22;54886;47.036;15.466;2023-05-27T09:42:43;20.76;43.99
68098;DHT22;54886;47.036;15.466;2023-05-27T09:45:17;20.79;42.82
68098;DHT22;54886;47.036;15.466;2023-05-27T09:47:47;20.85;42.64
68098;DHT22;54886;47.036;15.466;2023-05-27T09:50:12;20.85;44.69
68098;DHT22;54886;47.036;15.466;2023-05-27T09:52:42;20.89;41.31
68098;DHT22;54886;47.036;15.466;2023-05-27T09:55:09;20.91;42.17
68098;DHT22;54886;47.036;15.466;2023-05-27T09:57:36;20.93;43.71
68098;DHT22;54886;47.036;15.466;2023-05-27T10:00:04;20.95;45.15
68098;DHT22;54886;47.036;15.466;2023-05-27T10:02:44;21.00;41.93
68098;DHT22;54886;47.036;15.466;2023-05-27T10:05:12;20.95;44.91
68098;DHT22;54886;47.036;15.466;2023-05-27T10:07:39;21.00;44.88
68098;DHT22;54886;47.036;15.466;2023-05-27T10:10:12;21.03;44.59
68098;DHT22;54886;47.036;15.466;2023-05-27T10:12:40;21.07;43.47
68098;DHT22;54886;47.036;15.466;2023-05-27T10:15:07;21.13;45.73
68098;DHT22;54886;47.036;15.466;2023-05-27T10:17:47;21.20;45.81
68098;DHT22;54886;47.036;15.466;2023-05-27T10:20:23;21.27;45.82
68098;DHT22;54886;47.036;15.466;2023-05-27T10:22:48;21.33;42.90
68098;DHT22;54886;47.036;15.466;2023-05-27T10:25:14;21.39;44.17
68098;DHT22;54886;47.036;15.466;2023-05-27T10:27:44;21.41;43.59
68098;DHT22;54886;47.036;15.466;2023-05-27T10:30:10;21.44;41.71
68098;DHT22;54886;47.036;15.466;2023-05-27T10:32:43;21.46;44.79
68098;DHT22;54886;47.036;15.466;2023-05-27T10:35:08;21.47;44.26
68098;DHT22;54886;47.036;15.466;2023-05-27T10:37:34;21.51;44.09
68098;DHT22;54886;47.036;15.466;2023-05-27T10:39:59;21.53;43.65
68098;DHT22;54886;47.036;15.466;2023-05-27T10:42:26;21.64;43.56
68098;DHT22;54886;47.036;15.466;2023-05-27T10:45:04;21.61;42.17
68098;DHT22;54886;47.036;15.466;2023-05-27T10:47:30;21.62;44.28
68098;DHT22;54886;47.036;15.466;2023-05-27T10:49:56;21.67;42.57
68098;DHT22;54886;47.036;15.466;2023-05-27T10:52:24;21.68;43.71
68098;DHT22;54886;47.036;15.466;2023-05-27T10:54:52;21.71;42.34
68098;DHT22;54886;47.036;15.466;2023-05-27T10:57:20;21.81;44.91
68098;DHT22;54886;47.036;15.466;2023-05-27T10:59:54;21.85;45.70
68098;DHT22;54886;47.036;15.466;2023-05-27T11:02:21;21.92;42.55
68098;DHT22;54886;47.036;15.466;2023-05-27T11:04:48;21.99;42.13
68098;DHT22;54886;47.036;15.466;2023-05-27T11:07:18;21.91;42.00
68098;DHT22;54886;47.036;15.466;2023-05-27T11:09:47;21.98;43.45
68098;DHT22;54886;47.036;15.466;2023-05-27T11:12:13;21.96;43.13
68098;DHT22;54886;47.036;15.466;2023-05-27T11:14:42;21.92;43.08
68098;DHT22;54886;47.036;15.466;2023-05-27T11:17:11;21.99;45.06
68098;DHT22;54886;47.036;15.466;2023-05-27T11:19:39;21.99;43.03
68098;DHT22;54886;47.036;15.466;2023-05-27T11:22:05;22.03;43.69
68098;DHT22;54886;47.036;15.466;2023-05-27T11:24:31;22.05;41.05
68098;DHT22;54886;47.036;15.466;2023-05-27T11:26:56;22.08;41.47
68098;DHT22;54886;47.036;15.466;2023-05-27T11:29:22;22.19;43.08
68098;DHT22;54886;47.036;15.466;2023-05-27T11:31:48;22.24;42.99
68098;DHT22;54886;47.036;15.466;2023-05-27T11:34:15;22.29;40.94
68098;DHT22;54886;47.036;15.466;2023-05-27T11:36:41;22.20;41.95
68098;DHT22;54886;47.036;15.466;2023-05-27T11:39:10;22.29;42.37
68098;DHT22;54886;47.036;15.466;2023-05-27T11:41:48;22.32;43.64
68098;DHT22;54886;47.036;15.466;2023-05-27T11:44:14;22.30;42.11
68098;DHT22;54886;47.036;15.466;2023-05-27T11:46:45;22.37;42.43
68098;DHT22;54886;47.036;15.466;2023-05-27T11:49:15;22.43;41.86
68098;DHT22;54886;47.036;15.466;2023-05-27T11:51:46;22.47;40.42
68098;DHT22;54886;47.036;15.466;2023-05-27T11:54:29;22.50;41.88
68098;DHT22;54886;47.036;15.466;2023-05-27T11:56:56;22.48;43.51
68098;DHT22;54886;47.036;15.466;2023-05-27T11:59:24;22.50;42.10
68098;DHT22;54886;47.036;15.466;2023-05-27T12:01:51;22.53;42.67
68098;DHT22;54886;47.036;15.466;2023-05-27T12:04:18;22.63;44.00
68098;DHT22;54886;47.036;15.466;2023-05-27T12:06:44;22.67;42.42
68098;DHT22;54886;47.036;15.466;2023-05-27T12:09:10;22.67;43.29
68098;DHT22;54886;47.036;15.466;2023-05-27T12:11:36;22.64;40.20
68098;DHT22;54886;47.036;15.466;2023-05-27T12:14:02;22.67;43.22
68098;DHT22;54886;47.036;15.466;2023-05-27T12:16:28;22.67;41.13
68098;DHT22;54886;47.036;15.466;2023-05-27T12:18:53;22.71;42.39
68098;DHT22;54886;47.036;15.466;2023-05-27T12:21:19;22.78;42.92
68098;DHT22;54886;47.036;15.466;2023-05-27T12:23:46;22.81;42.55
68098;DHT22;54886;47.036;15.466;2023-05-27T12:26:12;22.81;41.15
68098;DHT22;54886;47.036;15.466;2023-05-27T12:28:38;22.83;43.02
68098;DHT22;54886;47.036;15.466;2023-05-27T12:31:04;22.85;42.60
68098;DHT22;54886;47.036;15.466;2023-05-27T12:33:30;22.88;42.67
68098;DHT22;54886;47.036;15.466;2023-05-27T12:35:56;22.90;41.99
68098;DHT22;54886;47.036;15.466;2023-05-27T12:38:21;22.95;42.77
68098;DHT22;54886;47.036;15.466;2023-05-27T12:40:47;22.98;42.81
68098;DHT22;54886;47.036;15.466;2023-05-27T12:43:14;22.98;41.13
68098;DHT22;54886;47.036;15.466;2023-05-27T12:45:39;22.98;41.73
68098;DHT22;54886;47.036;15.466;2023-05-27T12:48:04;22.99;40.90
68098;DHT22;54886;47.036;15.466;2023-05-27T12:50:30;22.98;40.36
68098;DHT22;54886;47.036;15.466;2023-05-27T12:52:57;23.03;38.59
68098;DHT22;54886;47.036;15.466;2023-05-27T12:55:23;22.99;38.07
68098;DHT22;54886;47.036;15.466;2023-05-27T12:57:50;22.99;39.07
68098;DHT22;54886;47.036;15.466;2023-05-27T13:00:17;23.01;41.05
68098;DHT22;54886;47.036;15.466;2023-05-27T13:02:43;23.05;40.68
68098;DHT22;54886;47.036;15.466;2023-05-27T13:05:09;23.03;40.69
68098;DHT22;54886;47.036;15.466;2023-05-27T13:07:35;23.02;39.00
68098;DHT22;54886;47.036;15.466;2023-05-27T13:10:02;23.03;41.30
68098;DHT22;54886;47.036;15.466;2023-05-27T13:12:28;23.05;42.38
68098;DHT22;54886;47.036;15.466;2023-05-27T13:14:54;23.09;40.94
68098;DHT22;54886;47.036;15.466;2023-05-27T13:17:19;23.13;41.36
68098;DHT22;54886;47.036;15.466;2023-05-27T13:19:45;23.22;41.38
68098;DHT22;54886;47.036;15.466;2023-05-27T13:22:10;23.29;40.86
68098;DHT22;54886;47.036;15.466;2023-05-27T13:24:36;23.26;41.56
68098;DHT22;54886;47.036;15.466;2023-05-27T13:27:01;23.20;39.54
68098;DHT22;54886;47.036;15.466;2023-05-27T13:29:28;23.24;38.85
68098;DHT22;54886;47.036;15.466;2023-05-27T13:31:54;23.30;40.96
68098;DHT22;54886;47.036;15.466;2023-05-27T13:34:19;23.36;41.00
68098;DHT22;54886;47.036;15.466;2023-05-27T13:36:45;23.31;40.85
68098;DHT22;54886;47.036;15.466;2023-05-27T13:39:10;23.29;40.24
68098;DHT22;54886;47.036;15.466;2023-05-27T13:41:36;23.31;38.47
68098;DHT22;54886;47.036;15.466;2023-05-27T13:44:01;23.29;40.55
68098;DHT22;54886;47.036;15.466;2023-05-27T13:46:26;23.27;38.85
68098;DHT22;54886;47.036;15.466;2023-05-27T13:48:52;23.24;39.14
68098;DHT22;54886;47.036;15.466;2023-05-27T13:51:17;23.29;41.83
68098;DHT22;54886;47.036;15.466;2023-05-27T13:53:43;23.31;40.17
68098;DHT22;54886;47.036;15.466;2023-05-27T13:56:08;23.29;39.42
68098;DHT22;54886;47.036;15.466;2023-05-27T13:58:33;23.22;37.30
68098;DHT22;54886;47.036;15.466;2023-05-27T14:00:59;23.31;40.44
68098;DHT22;54886;47.036;15.466;2023-05-27T14:03:24;23.39;42.73
68098;DHT22;54886;47.036;15.466;2023-05-27T14:05:50;23.46;42.35
68098;DHT22;54886;47.036;15.466;2023-05-27T14:08:16;23.45;40.15
68098;DHT22;54886;47.036;15.466;2023-05-27T14:10:42;23.47;42.23
68098;DHT22;54886;47.036;15.466;2023-05-27T14:13:07;23.51;42.15
68098;DHT22;54886;47.036;15.466;2023-05-27T14:15:32;23.51;40.58
68098;DHT22;54886;47.036;15.466;2023-05-27T14:17:58;23.50;40.96
68098;DHT22;54886;47.036;15.466;2023-05-27T14:20:26;23.47;42.03
68098;DHT22;54886;47.036;15.466;2023-05-27T14:22:52;23.49;42.62
68098;DHT22;54886;47.036;15.466;2023-05-27T14:25:17;23.49;40.33
68098;DHT22;54886;47.036;15.466;2023-05-27T14:27:44;23.53;41.51
68098;DHT22;54886;47.036;15.466;2023-05-27T14:30:10;23.53;41.85
68098;DHT22;54886;47.036;15.466;2023-05-27T14:32:35;23.53;42.54
68098;DHT22;54886;47.036;15.466;2023-05-27T14:35:01;23.54;42.49
68098;DHT22;54886;47.036;15.466;2023-05-27T14:37:26;23.56;40.52
68098;DHT22;54886;47.036;15.466;2023-05-27T14:39:51;23.54;42.27
68098;DHT22;54886;47.036;15.466;2023-05-27T14:42:18;23.58;42.29
68098;DHT22;54886;47.036;15.466;2023-05-27T14:44:43;23.60;41.94
68098;DHT22;54886;47.036;15.466;2023-05-27T14:47:09;23.64;44.09
68098;DHT22;54886;47.036;15.466;2023-05-27T14:49:35;23.71;41.97
68098;DHT22;54886;47.036;15.466;2023-05-27T14:52:00;23.74;43.09
68098;DHT22;54886;47.036;15.466;2023-05-27T14:54:26;23.79;41.63
68098;DHT22;54886;47.036;15.466;2023-05-27T14:56:52;23.73;41.02
68098;DHT22;54886;47.036;15.466;2023-05-27T14:59:17;23.78;41.20
68098;DHT22;54886;47.036;15.466;2023-05-27T15:01:43;23.78;42.44
68098;DHT22;54886;47.036;15.466;2023-05-27T15:04:09;23.77;42.00
68098;DHT22;54886;47.036;15.466;2023-05-27T15:06:35;23.81;42.07
68098;DHT22;54886;47.036;15.466;2023-05-27T15:09:00;23.78;40.96
68098;DHT22;54886;47.036;15.466;2023-05-27T15:11:26;23.79;41.39
68098;DHT22;54886;47.036;15.466;2023-05-27T15:13:51;23.79;40.67
68098;DHT22;54886;47.036;15.466;2023-05-27T15:16:19;23.73;39.95